sensor_id;sensor_type;location;lat;lon;timestamp;pressure;altitude;pressure_sealevel;temperature
65290;BMP180;51893;59.754;10.110;2023-07-24T00:00:54;100339.80;;;14.40
65290;BMP180;51893;59.754;10.110;2023-07-24T00:03:31;100338.20;;;14.40
65290;BMP180;51893;59.754;10.110;2023-07-24T00:05:59;100336.60;;;14.30
65290;BMP180;51893;59.754;10.110;2023-07-24T00:08:28;100334.40;;;14.30
65290;BMP180;51893;59.754;10.110;2023-07-24T00:10:56;100329.20;;;14.30
65290;BMP180;51893;59.754;10.110;2023-07-24T00:13:24;100326.20;;;14.30
65290;BMP180;51893;59.754;10.110;2023-07-24T00:15:52;100319.60;;;14.32
65290;BMP180;51893;59.754;10.110;2023-07-24T00:18:21;100323.00;;;14.40
65290;BMP180;51893;59.754;10.110;2023-07-24T00:20:48;100317.20;;;14.40
65290;BMP180;51893;59.754;10.110;2023-07-24T00:23:16;100318.20;;;14.30
65290;BMP180;51893;59.754;10.110;2023-07-24T00:25:45;100312.60;;;14.30
65290;BMP180;51893;59.754;10.110;2023-07-24T00:28:13;100309.20;;;14.30
65290;BMP180;51893;59.754;10.110;2023-07-24T00:30:42;100307.80;;;14.26
65290;BMP180;51893;59.754;10.110;2023-07-24T00:33:11;100304.60;;;14.20
65290;BMP180;51893;59.754;10.110;2023-07-24T00:35:39;100304.80;;;14.20
65290;BMP180;51893;59.754;10.110;2023-07-24T00:38:08;100304.20;;;14.30
65290;BMP180;51893;59.754;10.110;2023-07-24T00:40:36;100302.20;;;14.30
65290;BMP180;51893;59.754;10.110;2023-07-24T00:43:04;100302.60;;;14.30
65290;BMP180;51893;59.754;10.110;2023-07-24T00:45:34;100299.60;;;14.20
65290;BMP180;51893;59.754;10.110;2023-07-24T00:48:02;100300.20;;;14.10
65290;BMP180;51893;59.754;10.110;2023-07-24T00:50:30;100302.20;;;14.00
65290;BMP180;51893;59.754;10.110;2023-07-24T00:52:59;100295.20;;;14.00
65290;BMP180;51893;59.754;10.110;2023-07-24T00:55:27;100294.20;;;14.00
65290;BMP180;51893;59.754;10.110;2023-07-24T00:57:58;100290.60;;;14.00
65290;BMP180;51893;59.754;10.110;2023-07-24T01:00:27;100288.20;;;13.96
65290;BMP180;51893;59.754;10.110;2023-07-24T01:02:56;100285.60;;;14.00
65290;BMP180;51893;59.754;10.110;2023-07-24T01:05:27;100285.20;;;14.10
65290;BMP180;51893;59.754;10.110;2023-07-24T01:07:55;100282.40;;;14.00
65290;BMP180;51893;59.754;10.110;2023-07-24T01:10:23;100282.40;;;14.00
65290;BMP180;51893;59.754;10.110;2023-07-24T01:12:58;100280.20;;;13.96
65290;BMP180;51893;59.754;10.110;2023-07-24T01:15:42;100278.20;;;13.90
65290;BMP180;51893;59.754;10.110;2023-07-24T01:18:13;100279.00;;;13.90
65290;BMP180;51893;59.754;10.110;2023-07-24T01:20:50;100282.60;;;13.88
65290;BMP180;51893;59.754;10.110;2023-07-24T01:24:08;100281.40;;;13.90
65290;BMP180;51893;59.754;10.110;2023-07-24T01:26:41;100280.40;;;13.90
65290;BMP180;51893;59.754;10.110;2023-07-24T01:29:09;100274.40;;;13.80
65290;BMP180;51893;59.754;10.110;2023-07-24T01:31:37;100272.80;;;13.80
65290;BMP180;51893;59.754;10.110;2023-07-24T01:34:05;100271.20;;;13.80
65290;BMP180;51893;59.754;10.110;2023-07-24T01:36:33;100270.20;;;13.80
65290;BMP180;51893;59.754;10.110;2023-07-24T01:39:01;100268.60;;;13.80
65290;BMP180;51893;59.754;10.110;2023-07-24T01:41:31;100266.40;;;13.80
65290;BMP180;51893;59.754;10.110;2023-07-24T01:43:59;100258.40;;;13.80
65290;BMP180;51893;59.754;10.110;2023-07-24T01:46:28;100257.40;;;13.80
65290;BMP180;51893;59.754;10.110;2023-07-24T01:48:56;100258.00;;;13.80
65290;BMP180;51893;59.754;10.110;2023-07-24T01:51:24;100260.60;;;13.70
65290;BMP180;51893;59.754;10.110;2023-07-24T01:53:56;100255.40;;;13.70
65290;BMP180;51893;59.754;10.110;2023-07-24T01:56:23;100255.40;;;13.70
65290;BMP180;51893;59.754;10.110;2023-07-24T01:58:51;100253.40;;;13.70
65290;BMP180;51893;59.754;10.110;2023-07-24T02:01:19;100250.20;;;13.70
65290;BMP180;51893;59.754;10.110;2023-07-24T02:03:47;100255.00;;;13.70
65290;BMP180;51893;59.754;10.110;2023-07-24T02:06:15;100251.00;;;13.70
65290;BMP180;51893;59.754;10.110;2023-07-24T02:08:43;100249.60;;;13.70
65290;BMP180;51893;59.754;10.110;2023-07-24T02:11:16;100246.80;;;13.70
65290;BMP180;51893;59.754;10.110;2023-07-24T02:13:45;100247.80;;;13.70
65290;BMP180;51893;59.754;10.110;2023-07-24T02:16:13;100243.20;;;13.70
65290;BMP180;51893;59.754;10.110;2023-07-24T02:18:43;100242.20;;;13.70
65290;BMP180;51893;59.754;10.110;2023-07-24T02:21:11;100235.60;;;13.60
65290;BMP180;51893;59.754;10.110;2023-07-24T02:23:39;100232.40;;;13.60
65290;BMP180;51893;59.754;10.110;2023-07-24T02:26:07;100233.60;;;13.50
65290;BMP180;51893;59.754;10.110;2023-07-24T02:28:35;100228.80;;;13.50
65290;BMP180;51893;59.754;10.110;2023-07-24T02:31:03;100226.80;;;13.50
65290;BMP180;51893;59.754;10.110;2023-07-24T02:33:31;100229.60;;;13.50
65290;BMP180;51893;59.754;10.110;2023-07-24T02:36:01;100229.60;;;13.50
65290;BMP180;51893;59.754;10.110;2023-07-24T02:38:29;100226.60;;;13.50
65290;BMP180;51893;59.754;10.110;2023-07-24T02:40:57;100228.60;;;13.50
65290;BMP180;51893;59.754;10.110;2023-07-24T02:43:25;100229.60;;;13.40
65290;BMP180;51893;59.754;10.110;2023-07-24T02:45:53;100229.60;;;13.40
65290;BMP180;51893;59.754;10.110;2023-07-24T02:48:21;100230.20;;;13.30
65290;BMP180;51893;59.754;10.110;2023-07-24T02:50:49;100228.00;;;13.22
65290;BMP180;51893;59.754;10.110;2023-07-24T02:53:17;100224.60;;;13.20
65290;BMP180;51893;59.754;10.110;2023-07-24T02:55:45;100222.20;;;13.20
65290;BMP180;51893;59.754;10.110;2023-07-24T02:58:14;100226.00;;;13.16
65290;BMP180;51893;59.754;10.110;2023-07-24T03:00:42;100227.60;;;13.12
65290;BMP180;51893;59.754;10.110;2023-07-24T03:03:10;100224.80;;;13.12
65290;BMP180;51893;59.754;10.110;2023-07-24T03:05:38;100222.40;;;13.18
65290;BMP180;51893;59.754;10.110;2023-07-24T03:08:06;100218.20;;;13.20
65290;BMP180;51893;59.754;10.110;2023-07-24T03:10:34;100218.00;;;13.20
65290;BMP180;51893;59.754;10.110;2023-07-24T03:13:02;100216.60;;;13.20
65290;BMP180;51893;59.754;10.110;2023-07-24T03:15:30;100213.20;;;13.18
65290;BMP180;51893;59.754;10.110;2023-07-24T03:17:58;100209.80;;;13.20
65290;BMP180;51893;59.754;10.110;2023-07-24T03:20:28;100207.80;;;13.20
65290;BMP180;51893;59.754;10.110;2023-07-24T03:22:56;100204.00;;;13.10
65290;BMP180;51893;59.754;10.110;2023-07-24T03:25:24;100202.80;;;13.10
65290;BMP180;51893;59.754;10.110;2023-07-24T03:27:52;100205.60;;;13.18
65290;BMP180;51893;59.754;10.110;2023-07-24T03:30:20;100208.80;;;13.20
65290;BMP180;51893;59.754;10.110;2023-07-24T03:32:49;100207.20;;;13.18
65290;BMP180;51893;59.754;10.110;2023-07-24T03:35:17;100204.80;;;13.20
65290;BMP180;51893;59.754;10.110;2023-07-24T03:37:45;100203.40;;;13.10
65290;BMP180;51893;59.754;10.110;2023-07-24T03:40:13;100199.00;;;13.10
65290;BMP180;51893;59.754;10.110;2023-07-24T03:42:41;100206.20;;;13.10
65290;BMP180;51893;59.754;10.110;2023-07-24T03:45:10;100202.40;;;13.00
65290;BMP180;51893;59.754;10.110;2023-07-24T03:47:38;100200.20;;;13.00
65290;BMP180;51893;59.754;10.110;2023-07-24T03:50:09;100199.40;;;13.06
65290;BMP180;51893;59.754;10.110;2023-07-24T03:52:37;100197.40;;;13.10
65290;BMP180;51893;59.754;10.110;2023-07-24T03:55:06;100196.20;;;13.10
65290;BMP180;51893;59.754;10.110;2023-07-24T03:57:36;100197.00;;;13.10
65290;BMP180;51893;59.754;10.110;2023-07-24T04:00:05;100197.40;;;13.18
65290;BMP180;51893;59.754;10.110;2023-07-24T04:02:34;100194.60;;;13.14
65290;BMP180;51893;59.754;10.110;2023-07-24T04:05:03;100188.60;;;13.14
65290;BMP180;51893;59.754;10.110;2023-07-24T04:07:31;100184.20;;;13.20
65290;BMP180;51893;59.754;10.110;2023-07-24T04:09:59;100184.20;;;13.20
65290;BMP180;51893;59.754;10.110;2023-07-24T04:12:28;100184.20;;;13.22
65290;BMP180;51893;59.754;10.110;2023-07-24T04:14:57;100182.80;;;13.30
65290;BMP180;51893;59.754;10.110;2023-07-24T04:17:25;100178.60;;;13.30
65290;BMP180;51893;59.754;10.110;2023-07-24T04:19:55;100173.80;;;13.40
65290;BMP180;51893;59.754;10.110;2023-07-24T04:22:23;100170.20;;;13.50
65290;BMP180;51893;59.754;10.110;2023-07-24T04:24:50;100167.40;;;13.50
65290;BMP180;51893;59.754;10.110;2023-07-24T04:27:20;100167.80;;;13.56
65290;BMP180;51893;59.754;10.110;2023-07-24T04:29:48;100159.40;;;13.60
65290;BMP180;51893;59.754;10.110;2023-07-24T04:32:16;100165.20;;;13.68
65290;BMP180;51893;59.754;10.110;2023-07-24T04:34:44;100163.20;;;13.70
65290;BMP180;51893;59.754;10.110;2023-07-24T04:37:12;100160.00;;;13.70
65290;BMP180;51893;59.754;10.110;2023-07-24T04:39:40;100156.20;;;13.80
65290;BMP180;51893;59.754;10.110;2023-07-24T04:42:08;100157.80;;;13.80
65290;BMP180;51893;59.754;10.110;2023-07-24T04:44:36;100156.00;;;13.80
65290;BMP180;51893;59.754;10.110;2023-07-24T04:47:04;100154.00;;;13.80
65290;BMP180;51893;59.754;10.110;2023-07-24T04:49:32;100157.80;;;13.80
65290;BMP180;51893;59.754;10.110;2023-07-24T04:52:00;100154.40;;;13.88
65290;BMP180;51893;59.754;10.110;2023-07-24T04:54:28;100153.00;;;13.90
65290;BMP180;51893;59.754;10.110;2023-07-24T04:56:57;100152.60;;;13.90
65290;BMP180;51893;59.754;10.110;2023-07-24T04:59:25;100153.00;;;13.90
65290;BMP180;51893;59.754;10.110;2023-07-24T05:01:53;100149.00;;;13.96
65290;BMP180;51893;59.754;10.110;2023-07-24T05:04:22;100144.60;;;14.00
65290;BMP180;51893;59.754;10.110;2023-07-24T05:06:50;100146.00;;;14.00
65290;BMP180;51893;59.754;10.110;2023-07-24T05:09:18;100152.40;;;14.10
65290;BMP180;51893;59.754;10.110;2023-07-24T05:11:47;100148.20;;;14.10
65290;BMP180;51893;59.754;10.110;2023-07-24T05:14:15;100147.40;;;14.10
65290;BMP180;51893;59.754;10.110;2023-07-24T05:16:43;100147.80;;;14.10
65290;BMP180;51893;59.754;10.110;2023-07-24T05:19:11;100144.60;;;14.10
65290;BMP180;51893;59.754;10.110;2023-07-24T05:21:39;100151.80;;;14.10
65290;BMP180;51893;59.754;10.110;2023-07-24T05:24:08;100148.60;;;14.10
65290;BMP180;51893;59.754;10.110;2023-07-24T05:26:36;100148.20;;;14.20
65290;BMP180;51893;59.754;10.110;2023-07-24T05:29:04;100149.60;;;14.30
65290;BMP180;51893;59.754;10.110;2023-07-24T05:31:34;100147.60;;;14.30
65290;BMP180;51893;59.754;10.110;2023-07-24T05:34:06;100146.80;;;14.30
65290;BMP180;51893;59.754;10.110;2023-07-24T05:36:34;100151.00;;;14.30
65290;BMP180;51893;59.754;10.110;2023-07-24T05:39:02;100145.40;;;14.40
65290;BMP180;51893;59.754;10.110;2023-07-24T05:41:30;100144.60;;;14.30
65290;BMP180;51893;59.754;10.110;2023-07-24T05:43:58;100143.80;;;14.40
65290;BMP180;51893;59.754;10.110;2023-07-24T05:46:26;100147.00;;;14.40
65290;BMP180;51893;59.754;10.110;2023-07-24T05:48:55;100144.60;;;14.50
65290;BMP180;51893;59.754;10.110;2023-07-24T05:51:24;100139.60;;;14.60
65290;BMP180;51893;59.754;10.110;2023-07-24T05:53:52;100138.80;;;14.60
65290;BMP180;51893;59.754;10.110;2023-07-24T05:56:20;100145.20;;;14.70
65290;BMP180;51893;59.754;10.110;2023-07-24T05:58:49;100141.00;;;14.78
65290;BMP180;51893;59.754;10.110;2023-07-24T06:01:17;100138.80;;;14.80
65290;BMP180;51893;59.754;10.110;2023-07-24T06:03:46;100139.20;;;14.80
65290;BMP180;51893;59.754;10.110;2023-07-24T06:06:14;100132.00;;;14.82
65290;BMP180;51893;59.754;10.110;2023-07-24T06:08:42;100131.60;;;14.80
65290;BMP180;51893;59.754;10.110;2023-07-24T06:11:10;100132.00;;;14.84
65290;BMP180;51893;59.754;10.110;2023-07-24T06:13:38;100130.20;;;14.90
65290;BMP180;51893;59.754;10.110;2023-07-24T06:16:07;100131.20;;;14.88
65290;BMP180;51893;59.754;10.110;2023-07-24T06:18:35;100128.80;;;14.82
65290;BMP180;51893;59.754;10.110;2023-07-24T06:21:03;100130.00;;;14.88
65290;BMP180;51893;59.754;10.110;2023-07-24T06:23:31;100128.40;;;14.90
65290;BMP180;51893;59.754;10.110;2023-07-24T06:25:59;100128.00;;;14.90
65290;BMP180;51893;59.754;10.110;2023-07-24T06:28:29;100131.00;;;15.00
65290;BMP180;51893;59.754;10.110;2023-07-24T06:30:57;100126.80;;;15.00
65290;BMP180;51893;59.754;10.110;2023-07-24T06:33:25;100124.00;;;15.00
65290;BMP180;51893;59.754;10.110;2023-07-24T06:35:53;100124.20;;;15.10
65290;BMP180;51893;59.754;10.110;2023-07-24T06:38:21;100120.40;;;15.10
65290;BMP180;51893;59.754;10.110;2023-07-24T06:40:49;100117.20;;;15.18
65290;BMP180;51893;59.754;10.110;2023-07-24T06:43:17;100115.80;;;15.20
65290;BMP180;51893;59.754;10.110;2023-07-24T06:45:45;100117.00;;;15.22
65290;BMP180;51893;59.754;10.110;2023-07-24T06:48:13;100115.20;;;15.30
65290;BMP180;51893;59.754;10.110;2023-07-24T06:50:41;100115.80;;;15.30
65290;BMP180;51893;59.754;10.110;2023-07-24T06:53:10;100112.00;;;15.30
65290;BMP180;51893;59.754;10.110;2023-07-24T06:55:38;100113.00;;;15.30
65290;BMP180;51893;59.754;10.110;2023-07-24T06:58:07;100109.60;;;15.32
65290;BMP180;51893;59.754;10.110;2023-07-24T07:00:36;100110.00;;;15.38
65290;BMP180;51893;59.754;10.110;2023-07-24T07:03:04;100111.20;;;15.40
65290;BMP180;51893;59.754;10.110;2023-07-24T07:05:32;100101.40;;;15.40
65290;BMP180;51893;59.754;10.110;2023-07-24T07:08:01;100101.40;;;15.44
65290;BMP180;51893;59.754;10.110;2023-07-24T07:10:31;100102.60;;;15.50
65290;BMP180;51893;59.754;10.110;2023-07-24T07:12:59;100105.00;;;15.50
65290;BMP180;51893;59.754;10.110;2023-07-24T07:15:27;100102.00;;;15.50
65290;BMP180;51893;59.754;10.110;2023-07-24T07:17:56;100095.60;;;15.54
65290;BMP180;51893;59.754;10.110;2023-07-24T07:20:25;100101.80;;;15.60
65290;BMP180;51893;59.754;10.110;2023-07-24T07:22:53;100101.80;;;15.70
65290;BMP180;51893;59.754;10.110;2023-07-24T07:25:23;100100.40;;;15.72
65290;BMP180;51893;59.754;10.110;2023-07-24T07:27:51;100098.20;;;15.80
65290;BMP180;51893;59.754;10.110;2023-07-24T07:30:20;100098.20;;;15.80
65290;BMP180;51893;59.754;10.110;2023-07-24T07:32:48;100100.20;;;15.80
65290;BMP180;51893;59.754;10.110;2023-07-24T07:35:19;100094.40;;;15.80
65290;BMP180;51893;59.754;10.110;2023-07-24T07:37:48;100096.60;;;15.90
65290;BMP180;51893;59.754;10.110;2023-07-24T07:40:17;100095.60;;;15.90
65290;BMP180;51893;59.754;10.110;2023-07-24T07:42:45;100096.80;;;16.00
65290;BMP180;51893;59.754;10.110;2023-07-24T07:45:13;100093.00;;;16.00
65290;BMP180;51893;59.754;10.110;2023-07-24T07:47:42;100091.00;;;16.00
65290;BMP180;51893;59.754;10.110;2023-07-24T07:50:11;100084.80;;;16.10
65290;BMP180;51893;59.754;10.110;2023-07-24T07:52:39;100090.20;;;16.10
65290;BMP180;51893;59.754;10.110;2023-07-24T07:55:08;100087.40;;;16.10
65290;BMP180;51893;59.754;10.110;2023-07-24T07:57:37;100083.60;;;16.14
65290;BMP180;51893;59.754;10.110;2023-07-24T08:00:06;100077.00;;;16.18
65290;BMP180;51893;59.754;10.110;2023-07-24T08:02:35;100080.40;;;16.20
65290;BMP180;51893;59.754;10.110;2023-07-24T08:05:04;100077.80;;;16.24
65290;BMP180;51893;59.754;10.110;2023-07-24T08:07:42;100074.20;;;16.30
65290;BMP180;51893;59.754;10.110;2023-07-24T08:10:10;100075.80;;;16.40
65290;BMP180;51893;59.754;10.110;2023-07-24T08:12:38;100077.20;;;16.48
65290;BMP180;51893;59.754;10.110;2023-07-24T08:15:10;100074.00;;;16.50
65290;BMP180;51893;59.754;10.110;2023-07-24T08:17:39;100071.00;;;16.52
65290;BMP180;51893;59.754;10.110;2023-07-24T08:20:07;100075.40;;;16.52
65290;BMP180;51893;59.754;10.110;2023-07-24T08:22:35;100071.60;;;16.60
65290;BMP180;51893;59.754;10.110;2023-07-24T08:25:06;100068.80;;;16.60
65290;BMP180;51893;59.754;10.110;2023-07-24T08:27:34;100067.80;;;16.60
65290;BMP180;51893;59.754;10.110;2023-07-24T08:30:21;100068.00;;;16.70
65290;BMP180;51893;59.754;10.110;2023-07-24T08:32:49;100068.40;;;16.70
65290;BMP180;51893;59.754;10.110;2023-07-24T08:35:19;100069.00;;;16.70
65290;BMP180;51893;59.754;10.110;2023-07-24T08:37:49;100066.60;;;16.66
65290;BMP180;51893;59.754;10.110;2023-07-24T08:40:17;100056.60;;;16.70
65290;BMP180;51893;59.754;10.110;2023-07-24T08:42:49;100059.40;;;16.70
65290;BMP180;51893;59.754;10.110;2023-07-24T08:45:20;100055.20;;;16.70
65290;BMP180;51893;59.754;10.110;2023-07-24T08:47:48;100055.40;;;16.80
65290;BMP180;51893;59.754;10.110;2023-07-24T08:50:18;100059.20;;;16.80
65290;BMP180;51893;59.754;10.110;2023-07-24T08:52:48;100053.40;;;16.80
65290;BMP180;51893;59.754;10.110;2023-07-24T08:55:16;100051.40;;;16.80
65290;BMP180;51893;59.754;10.110;2023-07-24T08:57:45;100048.60;;;16.80
65290;BMP180;51893;59.754;10.110;2023-07-24T09:00:14;100048.80;;;16.80
65290;BMP180;51893;59.754;10.110;2023-07-24T09:02:42;100043.60;;;16.90
65290;BMP180;51893;59.754;10.110;2023-07-24T09:05:10;100040.60;;;16.90
65290;BMP180;51893;59.754;10.110;2023-07-24T09:07:41;100036.00;;;17.00
65290;BMP180;51893;59.754;10.110;2023-07-24T09:10:09;100034.20;;;17.00
65290;BMP180;51893;59.754;10.110;2023-07-24T09:12:41;100034.20;;;17.00
65290;BMP180;51893;59.754;10.110;2023-07-24T09:15:11;100032.40;;;17.02
65290;BMP180;51893;59.754;10.110;2023-07-24T09:17:53;100033.00;;;17.04
65290;BMP180;51893;59.754;10.110;2023-07-24T09:20:22;100029.60;;;17.00
65290;BMP180;51893;59.754;10.110;2023-07-24T09:22:54;100028.80;;;17.08
65290;BMP180;51893;59.754;10.110;2023-07-24T09:25:33;100024.40;;;17.10
65290;BMP180;51893;59.754;10.110;2023-07-24T09:28:11;100025.80;;;17.10
65290;BMP180;51893;59.754;10.110;2023-07-24T09:30:41;100025.20;;;17.10
65290;BMP180;51893;59.754;10.110;2023-07-24T09:33:09;100025.20;;;17.10
65290;BMP180;51893;59.754;10.110;2023-07-24T09:35:37;100021.00;;;17.10
65290;BMP180;51893;59.754;10.110;2023-07-24T09:38:08;100027.40;;;17.12
65290;BMP180;51893;59.754;10.110;2023-07-24T09:40:45;100021.80;;;17.20
65290;BMP180;51893;59.754;10.110;2023-07-24T09:43:25;100023.40;;;17.20
65290;BMP180;51893;59.754;10.110;2023-07-24T09:46:07;100020.20;;;17.22
65290;BMP180;51893;59.754;10.110;2023-07-24T09:48:37;100025.20;;;17.30
65290;BMP180;51893;59.754;10.110;2023-07-24T09:51:12;100024.40;;;17.36
65290;BMP180;51893;59.754;10.110;2023-07-24T09:54:29;100017.20;;;17.40
65290;BMP180;51893;59.754;10.110;2023-07-24T09:57:00;100017.20;;;17.50
65290;BMP180;51893;59.754;10.110;2023-07-24T09:59:48;100018.80;;;17.50
65290;BMP180;51893;59.754;10.110;2023-07-24T10:02:17;100022.40;;;17.52
65290;BMP180;51893;59.754;10.110;2023-07-24T10:04:46;100023.20;;;17.60
65290;BMP180;51893;59.754;10.110;2023-07-24T10:07:16;100018.40;;;17.60
65290;BMP180;51893;59.754;10.110;2023-07-24T10:09:49;100020.80;;;17.50
65290;BMP180;51893;59.754;10.110;2023-07-24T10:12:21;100022.20;;;17.58
65290;BMP180;51893;59.754;10.110;2023-07-24T10:14:50;100018.20;;;17.60
65290;BMP180;51893;59.754;10.110;2023-07-24T10:17:39;100012.60;;;17.60
65290;BMP180;51893;59.754;10.110;2023-07-24T10:20:10;100005.00;;;17.70
65290;BMP180;51893;59.754;10.110;2023-07-24T10:22:42;100004.00;;;17.72
65290;BMP180;51893;59.754;10.110;2023-07-24T10:25:11;100007.40;;;17.80
65290;BMP180;51893;59.754;10.110;2023-07-24T10:27:42;100003.60;;;17.90
65290;BMP180;51893;59.754;10.110;2023-07-24T10:30:12;100003.00;;;17.92
65290;BMP180;51893;59.754;10.110;2023-07-24T10:36:04;99994.40;;;18.00
65290;BMP180;51893;59.754;10.110;2023-07-24T10:38:38;99988.40;;;18.02
65290;BMP180;51893;59.754;10.110;2023-07-24T10:41:09;99985.00;;;18.00
65290;BMP180;51893;59.754;10.110;2023-07-24T10:46:19;99978.00;;;18.00
65290;BMP180;51893;59.754;10.110;2023-07-24T10:48:51;99979.20;;;18.00
65290;BMP180;51893;59.754;10.110;2023-07-24T10:51:21;99975.00;;;18.00
65290;BMP180;51893;59.754;10.110;2023-07-24T10:53:49;99976.60;;;18.00
65290;BMP180;51893;59.754;10.110;2023-07-24T10:56:18;99971.00;;;17.90
65290;BMP180;51893;59.754;10.110;2023-07-24T10:58:47;99970.00;;;17.90
65290;BMP180;51893;59.754;10.110;2023-07-24T11:01:17;99970.40;;;17.90
65290;BMP180;51893;59.754;10.110;2023-07-24T11:03:49;99969.20;;;17.98
65290;BMP180;51893;59.754;10.110;2023-07-24T11:06:20;99967.80;;;18.00
65290;BMP180;51893;59.754;10.110;2023-07-24T11:08:56;99960.60;;;18.04
65290;BMP180;51893;59.754;10.110;2023-07-24T11:11:35;99955.40;;;18.10
65290;BMP180;51893;59.754;10.110;2023-07-24T11:14:12;99950.40;;;18.10
65290;BMP180;51893;59.754;10.110;2023-07-24T11:16:50;99951.80;;;18.10
65290;BMP180;51893;59.754;10.110;2023-07-24T11:19:24;99951.20;;;18.20
65290;BMP180;51893;59.754;10.110;2023-07-24T11:21:52;99950.80;;;18.12
65290;BMP180;51893;59.754;10.110;2023-07-24T11:24:20;99951.60;;;18.10
65290;BMP180;51893;59.754;10.110;2023-07-24T11:26:52;99955.20;;;18.10
65290;BMP180;51893;59.754;10.110;2023-07-24T11:29:20;99955.20;;;18.10
65290;BMP180;51893;59.754;10.110;2023-07-24T11:31:54;99952.40;;;18.10
65290;BMP180;51893;59.754;10.110;2023-07-24T11:34:22;99946.40;;;18.10
65290;BMP180;51893;59.754;10.110;2023-07-24T11:36:51;99943.40;;;18.08
65290;BMP180;51893;59.754;10.110;2023-07-24T11:39:23;99944.60;;;18.00
65290;BMP180;51893;59.754;10.110;2023-07-24T11:41:52;99937.40;;;17.90
65290;BMP180;51893;59.754;10.110;2023-07-24T11:44:28;99933.60;;;17.90
65290;BMP180;51893;59.754;10.110;2023-07-24T11:47:05;99931.40;;;17.90
65290;BMP180;51893;59.754;10.110;2023-07-24T11:49:33;99923.20;;;17.90
65290;BMP180;51893;59.754;10.110;2023-07-24T11:52:06;99917.00;;;17.90
65290;BMP180;51893;59.754;10.110;2023-07-24T11:54:35;99908.60;;;17.90
65290;BMP180;51893;59.754;10.110;2023-07-24T11:57:15;99900.60;;;17.90
65290;BMP180;51893;59.754;10.110;2023-07-24T11:59:43;99893.60;;;17.90
65290;BMP180;51893;59.754;10.110;2023-07-24T12:02:11;99893.00;;;17.90
65290;BMP180;51893;59.754;10.110;2023-07-24T12:04:40;99888.00;;;17.94
65290;BMP180;51893;59.754;10.110;2023-07-24T12:07:08;99888.40;;;18.00
65290;BMP180;51893;59.754;10.110;2023-07-24T12:09:36;99885.40;;;17.90
65290;BMP180;51893;59.754;10.110;2023-07-24T12:12:08;99888.80;;;17.90
65290;BMP180;51893;59.754;10.110;2023-07-24T12:14:43;99891.00;;;17.90
65290;BMP180;51893;59.754;10.110;2023-07-24T12:17:11;99887.80;;;17.80
65290;BMP180;51893;59.754;10.110;2023-07-24T12:19:42;99889.00;;;17.80
65290;BMP180;51893;59.754;10.110;2023-07-24T12:22:10;99886.60;;;17.82
65290;BMP180;51893;59.754;10.110;2023-07-24T12:24:38;99887.00;;;17.84
65290;BMP180;51893;59.754;10.110;2023-07-24T12:27:06;99897.60;;;17.80
65290;BMP180;51893;59.754;10.110;2023-07-24T12:29:34;99894.80;;;17.80
65290;BMP180;51893;59.754;10.110;2023-07-24T12:32:02;99888.20;;;17.72
65290;BMP180;51893;59.754;10.110;2023-07-24T12:34:30;99878.60;;;17.70
65290;BMP180;51893;59.754;10.110;2023-07-24T12:36:58;99871.40;;;17.70
65290;BMP180;51893;59.754;10.110;2023-07-24T12:39:27;99875.20;;;17.60
65290;BMP180;51893;59.754;10.110;2023-07-24T12:41:55;99881.40;;;17.50
65290;BMP180;51893;59.754;10.110;2023-07-24T12:44:23;99871.00;;;17.40
65290;BMP180;51893;59.754;10.110;2023-07-24T12:46:54;99877.60;;;17.30
65290;BMP180;51893;59.754;10.110;2023-07-24T12:49:22;99875.80;;;17.20
65290;BMP180;51893;59.754;10.110;2023-07-24T12:51:50;99878.20;;;17.10
65290;BMP180;51893;59.754;10.110;2023-07-24T12:54:18;99878.40;;;17.00
65290;BMP180;51893;59.754;10.110;2023-07-24T12:57:06;99872.80;;;16.98
65290;BMP180;51893;59.754;10.110;2023-07-24T12:59:34;99867.60;;;16.90
65290;BMP180;51893;59.754;10.110;2023-07-24T13:02:03;99864.20;;;16.90
65290;BMP180;51893;59.754;10.110;2023-07-24T13:04:31;99860.80;;;16.90
65290;BMP180;51893;59.754;10.110;2023-07-24T13:06:59;99857.20;;;16.90
65290;BMP180;51893;59.754;10.110;2023-07-24T13:09:28;99852.60;;;16.80
65290;BMP180;51893;59.754;10.110;2023-07-24T13:11:57;99850.20;;;16.80
65290;BMP180;51893;59.754;10.110;2023-07-24T13:14:25;99847.00;;;16.80
65290;BMP180;51893;59.754;10.110;2023-07-24T13:16:53;99843.80;;;16.80
65290;BMP180;51893;59.754;10.110;2023-07-24T13:19:22;99845.00;;;16.70
65290;BMP180;51893;59.754;10.110;2023-07-24T13:21:51;99852.20;;;16.60
65290;BMP180;51893;59.754;10.110;2023-07-24T13:24:19;99846.20;;;16.56
65290;BMP180;51893;59.754;10.110;2023-07-24T13:26:47;99846.40;;;16.50
65290;BMP180;51893;59.754;10.110;2023-07-24T13:29:15;99844.60;;;16.50
65290;BMP180;51893;59.754;10.110;2023-07-24T13:31:43;99841.40;;;16.50
65290;BMP180;51893;59.754;10.110;2023-07-24T13:34:13;99842.00;;;16.50
65290;BMP180;51893;59.754;10.110;2023-07-24T13:36:40;99841.00;;;16.50
65290;BMP180;51893;59.754;10.110;2023-07-24T13:39:09;99834.00;;;16.44
65290;BMP180;51893;59.754;10.110;2023-07-24T13:41:38;99836.20;;;16.40
65290;BMP180;51893;59.754;10.110;2023-07-24T13:44:06;99831.00;;;16.40
65290;BMP180;51893;59.754;10.110;2023-07-24T13:46:36;99828.40;;;16.40
65290;BMP180;51893;59.754;10.110;2023-07-24T13:49:07;99826.40;;;16.40
65290;BMP180;51893;59.754;10.110;2023-07-24T13:51:35;99823.80;;;16.40
65290;BMP180;51893;59.754;10.110;2023-07-24T13:54:03;99824.60;;;16.42
65290;BMP180;51893;59.754;10.110;2023-07-24T13:56:34;99823.20;;;16.40
65290;BMP180;51893;59.754;10.110;2023-07-24T13:59:03;99815.80;;;16.50
65290;BMP180;51893;59.754;10.110;2023-07-24T14:01:31;99811.60;;;16.50
65290;BMP180;51893;59.754;10.110;2023-07-24T14:04:00;99811.80;;;16.50
65290;BMP180;51893;59.754;10.110;2023-07-24T14:06:29;99808.60;;;16.50